createdAt,value
2018-02-23T00:00:42.558Z,0.00
2018-02-23T00:02:35.545Z,0.00
2018-02-23T00:03:35.578Z,0.00
2018-02-23T00:05:28.590Z,0.00
2018-02-23T00:06:28.601Z,0.00
2018-02-23T00:08:21.573Z,0.00
2018-02-23T00:09:21.625Z,0.00
2018-02-23T00:11:14.623Z,0.00
2018-02-23T00:12:14.667Z,0.00
2018-02-23T00:14:07.787Z,0.00
2018-02-23T00:15:07.713Z,0.00
2018-02-23T00:17:00.762Z,0.00
2018-02-23T00:18:00.781Z,0.00
2018-02-23T00:19:53.750Z,0.00
2018-02-23T00:20:53.802Z,0.00
2018-02-23T00:22:46.801Z,0.00
2018-02-23T00:23:46.826Z,0.00
2018-02-23T00:25:39.814Z,0.00
2018-02-23T00:26:39.848Z,0.00
2018-02-23T00:28:32.815Z,0.00
2018-02-23T00:29:32.868Z,0.00
2018-02-23T00:31:25.875Z,0.00
2018-02-23T00:32:25.893Z,0.00
2018-02-23T00:34:18.891Z,0.00
2018-02-23T00:35:18.913Z,0.00
2018-02-23T00:37:11.901Z,0.00
2018-02-23T00:38:11.935Z,0.00
2018-02-23T00:40:04.903Z,0.00
2018-02-23T00:41:04.988Z,0.00
2018-02-23T00:42:57.954Z,0.00
2018-02-23T00:43:57.978Z,0.00
2018-02-23T00:45:50.972Z,0.00
2018-02-23T00:46:51.009Z,0.00
2018-02-23T00:48:43.975Z,0.00
2018-02-23T00:49:44.028Z,0.00
2018-02-23T00:51:37.017Z,0.00
2018-02-23T00:52:37.065Z,0.00
2018-02-23T00:54:30.020Z,0.00
2018-02-23T00:55:30.073Z,0.00
2018-02-23T00:57:23.062Z,0.00
2018-02-23T00:58:23.350Z,0.00
2018-02-23T01:00:16.075Z,0.00
2018-02-23T01:01:16.125Z,0.00
2018-02-23T01:03:09.109Z,0.00
2018-02-23T01:04:09.142Z,0.00
2018-02-23T01:06:02.153Z,0.00
2018-02-23T01:07:02.162Z,0.00
2018-02-23T01:08:55.131Z,0.00
2018-02-23T01:09:55.184Z,0.00
2018-02-23T01:11:48.176Z,0.00
2018-02-23T01:12:48.209Z,0.00
2018-02-23T01:14:41.193Z,0.00
2018-02-23T01:15:41.230Z,0.00
2018-02-23T01:17:34.223Z,0.00
2018-02-23T01:18:34.258Z,0.00
2018-02-23T01:20:27.232Z,0.00
2018-02-23T01:21:27.278Z,0.00
2018-02-23T01:23:20.277Z,0.00
2018-02-23T01:24:20.318Z,0.00
2018-02-23T01:26:13.292Z,0.00
2018-02-23T01:27:13.324Z,0.00
2018-02-23T01:29:06.293Z,0.00
2018-02-23T01:30:06.346Z,0.00
2018-02-23T01:31:59.349Z,0.00
2018-02-23T01:32:59.367Z,0.00
2018-02-23T01:34:52.350Z,0.00
2018-02-23T01:35:52.388Z,0.00
2018-02-23T01:37:45.380Z,0.00
2018-02-23T01:38:45.411Z,0.00
2018-02-23T01:40:38.381Z,0.00
2018-02-23T01:41:38.432Z,0.00
2018-02-23T01:43:31.428Z,0.00
2018-02-23T01:44:31.455Z,0.00
2018-02-23T01:46:24.626Z,0.00
2018-02-23T01:47:24.534Z,0.00
2018-02-23T01:49:17.558Z,0.00
2018-02-23T01:50:17.600Z,0.00
2018-02-23T01:52:10.601Z,0.00
2018-02-23T01:53:10.607Z,0.00
2018-02-23T01:55:03.569Z,0.00
2018-02-23T01:56:03.634Z,0.00
2018-02-23T01:57:56.661Z,0.00
2018-02-23T01:58:57.656Z,0.00
2018-02-23T02:00:49.627Z,0.00
2018-02-23T02:01:49.667Z,0.00
2018-02-23T02:03:43.200Z,0.00
2018-02-23T02:04:43.208Z,0.00
2018-02-23T02:06:36.727Z,0.00
2018-02-23T02:07:36.244Z,0.00
2018-02-23T02:09:29.219Z,0.00
2018-02-23T02:10:29.264Z,0.00
2018-02-23T02:12:22.281Z,0.00
2018-02-23T02:13:22.308Z,0.00
2018-02-23T02:15:15.277Z,0.00
2018-02-23T02:16:15.311Z,0.00
2018-02-23T02:18:08.334Z,0.00
2018-02-23T02:19:08.341Z,0.00
2018-02-23T02:21:01.333Z,0.00
2018-02-23T02:22:01.371Z,0.00
2018-02-23T02:23:54.341Z,0.00
2018-02-23T02:24:54.394Z,0.00
2018-02-23T02:26:47.438Z,0.00
2018-02-23T02:27:47.501Z,0.00
2018-02-23T02:29:40.444Z,0.00
2018-02-23T02:30:40.487Z,0.00
2018-02-23T02:32:33.490Z,0.00
2018-02-23T02:33:33.519Z,0.00
2018-02-23T02:35:26.492Z,0.00
2018-02-23T02:36:26.558Z,0.00
2018-02-23T02:38:19.569Z,0.00
2018-02-23T02:39:19.570Z,0.00
2018-02-23T02:41:13.072Z,0.00
2018-02-23T02:42:12.617Z,0.00
2018-02-23T02:44:05.615Z,0.00
2018-02-23T02:45:05.650Z,0.00
2018-02-23T02:46:58.641Z,0.00
2018-02-23T02:47:58.672Z,0.00
2018-02-23T02:49:51.645Z,0.00
2018-02-23T02:50:51.698Z,0.00
2018-02-23T02:52:44.697Z,0.00
2018-02-23T02:53:44.726Z,0.00
2018-02-23T02:55:37.695Z,0.00
2018-02-23T02:56:37.750Z,0.00
2018-02-23T02:58:30.755Z,0.00
2018-02-23T02:59:30.772Z,0.00
2018-02-23T03:01:24.275Z,0.00
2018-02-23T03:02:23.794Z,0.00
2018-02-23T03:04:17.303Z,0.00
2018-02-23T03:05:17.324Z,0.00
2018-02-23T03:07:11.828Z,0.00
2018-02-23T03:08:10.373Z,0.00
2018-02-23T03:10:03.351Z,0.00
2018-02-23T03:11:03.390Z,0.00
2018-02-23T03:12:56.393Z,0.00
2018-02-23T03:13:57.393Z,0.00
2018-02-23T03:15:49.401Z,0.00
2018-02-23T03:16:49.479Z,0.00
2018-02-23T03:18:42.456Z,0.00
2018-02-23T03:19:42.475Z,0.00
2018-02-23T03:21:35.458Z,0.00
2018-02-23T03:22:35.523Z,0.00
2018-02-23T03:24:28.496Z,0.00
2018-02-23T03:25:28.532Z,0.00
2018-02-23T03:27:22.035Z,0.00
2018-02-23T03:28:21.552Z,0.00
2018-02-23T03:30:14.557Z,0.00
2018-02-23T03:31:14.576Z,0.00
2018-02-23T03:33:07.668Z,0.00
2018-02-23T03:34:07.600Z,0.00
2018-02-23T03:36:00.582Z,0.00
2018-02-23T03:37:00.618Z,0.00
2018-02-23T03:38:54.128Z,0.00
2018-02-23T03:39:53.645Z,0.00
2018-02-23T03:41:46.623Z,0.00
2018-02-23T03:42:46.668Z,0.00
2018-02-23T03:44:39.666Z,0.00
2018-02-23T03:45:39.698Z,0.00
2018-02-23T03:47:32.799Z,0.00
2018-02-23T03:48:32.750Z,0.00
2018-02-23T03:50:25.708Z,0.00
2018-02-23T03:51:25.758Z,0.00
2018-02-23T03:53:18.752Z,0.00
2018-02-23T03:54:18.787Z,0.00
2018-02-23T03:56:12.335Z,0.00
2018-02-23T03:57:11.838Z,0.00
2018-02-23T03:59:04.819Z,0.00
2018-02-23T04:00:04.851Z,0.00
2018-02-23T04:02:09.474Z,0.00
2018-02-23T04:03:10.373Z,0.00
2018-02-23T04:05:02.476Z,0.00
2018-02-23T04:06:02.530Z,0.00
2018-02-23T04:07:55.522Z,0.00
2018-02-23T04:08:55.606Z,0.00
2018-02-23T04:10:48.551Z,0.00
2018-02-23T04:11:48.657Z,0.00
2018-02-23T04:13:41.622Z,0.00
2018-02-23T04:14:41.663Z,0.00
2018-02-23T04:16:34.602Z,0.00
2018-02-23T04:17:34.657Z,0.00
2018-02-23T04:19:27.663Z,0.00
2018-02-23T04:20:27.714Z,0.00
2018-02-23T04:22:20.711Z,0.00
2018-02-23T04:23:20.723Z,0.00
2018-02-23T04:25:13.694Z,0.00
2018-02-23T04:26:13.755Z,0.00
2018-02-23T04:28:06.802Z,0.00
2018-02-23T04:29:06.772Z,0.00
2018-02-23T04:30:59.753Z,0.00
2018-02-23T04:31:59.821Z,0.00
2018-02-23T04:33:52.824Z,0.00
2018-02-23T04:34:52.861Z,0.00
2018-02-23T04:36:45.827Z,0.00
2018-02-23T04:37:45.890Z,0.00
2018-02-23T04:39:38.911Z,0.00
2018-02-23T04:40:38.913Z,0.00
2018-02-23T04:42:31.925Z,0.00
2018-02-23T04:43:31.919Z,0.00
2018-02-23T04:45:24.974Z,0.00
2018-02-23T04:46:24.944Z,0.00
2018-02-23T04:48:17.945Z,0.00
2018-02-23T04:49:17.977Z,0.00
2018-02-23T04:51:10.970Z,0.00
2018-02-23T04:52:11.014Z,0.00
2018-02-23T04:54:04.005Z,0.00
2018-02-23T04:55:04.028Z,0.00
2018-02-23T04:56:57.001Z,0.00
2018-02-23T04:57:57.045Z,0.00
2018-02-23T04:59:50.044Z,0.00
2018-02-23T05:00:50.064Z,0.00
2018-02-23T05:02:43.568Z,0.00
2018-02-23T05:03:43.594Z,0.00
2018-02-23T05:05:36.573Z,0.00
2018-02-23T05:06:36.635Z,0.00
2018-02-23T05:08:30.146Z,0.00
2018-02-23T05:09:29.647Z,0.00
2018-02-23T05:11:23.161Z,0.00
2018-02-23T05:12:22.666Z,0.00
2018-02-23T05:14:15.670Z,0.00
2018-02-23T05:15:15.721Z,0.00
2018-02-23T05:17:08.669Z,0.00
2018-02-23T05:18:08.717Z,0.00
2018-02-23T05:20:01.739Z,0.00
2018-02-23T05:21:01.752Z,0.00
2018-02-23T05:22:54.743Z,0.00
2018-02-23T05:23:54.773Z,0.00
2018-02-23T05:25:47.776Z,0.00
2018-02-23T05:26:47.802Z,0.00
2018-02-23T05:28:40.793Z,0.00
2018-02-23T05:29:40.857Z,0.00
2018-02-23T05:31:33.841Z,0.00
2018-02-23T05:32:33.856Z,0.00
2018-02-23T05:34:26.892Z,0.00
2018-02-23T05:35:26.921Z,0.00
2018-02-23T05:37:19.863Z,0.00
2018-02-23T05:38:20.049Z,0.00
2018-02-23T05:40:12.919Z,0.00
2018-02-23T05:41:13.000Z,0.00
2018-02-23T05:43:05.984Z,0.00
2018-02-23T05:44:06.008Z,0.00
2018-02-23T05:45:58.939Z,0.00
2018-02-23T05:46:58.994Z,0.00
2018-02-23T05:48:52.029Z,0.00
2018-02-23T05:49:52.010Z,0.00
2018-02-23T05:51:45.193Z,0.00
2018-02-23T05:52:45.105Z,0.00
2018-02-23T05:54:38.060Z,0.00
2018-02-23T05:55:38.101Z,0.00
2018-02-23T05:57:31.064Z,0.00
2018-02-23T05:58:31.127Z,0.00
2018-02-23T06:00:24.154Z,0.00
2018-02-23T06:01:24.129Z,0.00
2018-02-23T06:03:17.117Z,0.00
2018-02-23T06:04:17.148Z,0.00
2018-02-23T06:06:10.122Z,0.00
2018-02-23T06:07:10.194Z,0.00
2018-02-23T06:09:03.169Z,0.00
2018-02-23T06:10:03.192Z,0.00
2018-02-23T06:11:56.167Z,0.00
2018-02-23T06:12:56.216Z,0.00
2018-02-23T06:14:49.204Z,0.00
2018-02-23T06:15:49.236Z,0.00
2018-02-23T06:17:42.207Z,0.00
2018-02-23T06:18:42.258Z,0.00
2018-02-23T06:20:35.249Z,0.00
2018-02-23T06:21:35.283Z,0.00
2018-02-23T06:23:28.276Z,5.63
2018-02-23T06:24:28.303Z,5.63
2018-02-23T06:26:21.270Z,5.63
2018-02-23T06:27:21.323Z,11.25
2018-02-23T06:29:14.318Z,11.25
2018-02-23T06:30:14.342Z,11.25
2018-02-23T06:32:07.313Z,16.88
2018-02-23T06:33:07.368Z,16.88
2018-02-23T06:35:00.652Z,22.50
2018-02-23T06:36:00.466Z,22.50
2018-02-23T06:37:53.356Z,28.13
2018-02-23T06:38:53.417Z,28.13
2018-02-23T06:40:46.400Z,28.13
2018-02-23T06:41:46.455Z,33.75
2018-02-23T06:43:39.426Z,33.75
2018-02-23T06:44:39.509Z,39.38
2018-02-23T06:46:32.438Z,45.00
2018-02-23T06:47:32.527Z,45.00
2018-02-23T06:49:25.511Z,45.00
2018-02-23T06:50:25.510Z,50.63
2018-02-23T06:52:18.468Z,56.25
2018-02-23T06:53:18.520Z,56.25
2018-02-23T06:55:11.513Z,67.50
2018-02-23T06:56:11.543Z,73.13
2018-02-23T06:58:04.513Z,78.75
2018-02-23T06:59:04.562Z,84.38
2018-02-23T07:00:57.577Z,90.00
2018-02-23T07:01:57.588Z,95.63
2018-02-23T07:03:50.588Z,101.25
2018-02-23T07:04:50.605Z,106.88
2018-02-23T07:06:43.596Z,106.88
2018-02-23T07:07:43.626Z,112.50
2018-02-23T07:09:36.618Z,118.13
2018-02-23T07:10:36.648Z,118.13
2018-02-23T07:12:29.634Z,123.75
2018-02-23T07:13:29.679Z,129.38
2018-02-23T07:15:22.731Z,135.00
2018-02-23T07:16:22.695Z,135.00
2018-02-23T07:18:15.665Z,135.00
2018-02-23T07:19:15.720Z,135.00
2018-02-23T07:21:08.723Z,140.63
2018-02-23T07:22:08.737Z,140.63
2018-02-23T07:24:01.732Z,146.25
2018-02-23T07:25:01.763Z,151.88
2018-02-23T07:26:54.738Z,157.50
2018-02-23T07:27:54.785Z,163.13
2018-02-23T07:29:47.802Z,168.75
2018-02-23T07:30:47.821Z,168.75
2018-02-23T07:32:40.787Z,174.38
2018-02-23T07:33:40.838Z,180.00
2018-02-23T07:35:33.832Z,185.63
2018-02-23T07:36:33.862Z,185.63
2018-02-23T07:38:26.834Z,185.63
2018-02-23T07:39:26.886Z,185.63
2018-02-23T07:41:19.873Z,185.63
2018-02-23T07:42:19.907Z,191.25
2018-02-23T07:44:12.907Z,196.88
2018-02-23T07:45:12.930Z,202.50
2018-02-23T07:47:05.915Z,208.13
2018-02-23T07:48:05.947Z,225.00
2018-02-23T07:49:58.940Z,315.00
2018-02-23T07:50:58.978Z,382.50
2018-02-23T07:52:51.954Z,421.88
2018-02-23T07:53:52.020Z,427.50
2018-02-23T07:55:45.005Z,450.00
2018-02-23T07:56:45.034Z,455.63
2018-02-23T07:58:37.994Z,450.00
2018-02-23T07:59:38.079Z,455.63
2018-02-23T08:01:31.037Z,455.63
2018-02-23T08:02:31.071Z,461.25
2018-02-23T08:04:24.088Z,472.50
2018-02-23T08:05:24.106Z,472.50
2018-02-23T08:07:17.096Z,478.13
2018-02-23T08:08:17.156Z,478.13
2018-02-23T08:10:10.150Z,483.75
2018-02-23T08:11:10.174Z,483.75
2018-02-23T08:13:03.681Z,483.75
2018-02-23T08:14:03.198Z,495.00
2018-02-23T08:15:56.199Z,500.63
2018-02-23T08:16:56.229Z,500.63
2018-02-23T08:18:49.204Z,500.63
2018-02-23T08:19:49.258Z,500.63
2018-02-23T08:21:42.252Z,517.50
2018-02-23T08:22:42.288Z,517.50
2018-02-23T08:24:35.318Z,534.38
2018-02-23T08:25:35.324Z,540.00
2018-02-23T08:27:28.348Z,545.63
2018-02-23T08:28:28.380Z,545.63
2018-02-23T08:30:21.372Z,545.63
2018-02-23T08:31:21.397Z,545.63
2018-02-23T08:33:26.003Z,551.25
2018-02-23T08:34:26.057Z,556.88
2018-02-23T08:36:19.071Z,556.88
2018-02-23T08:37:19.107Z,562.50
2018-02-23T08:39:12.076Z,573.75
2018-02-23T08:40:12.123Z,573.75
2018-02-23T08:42:05.118Z,585.00
2018-02-23T08:43:05.175Z,585.00
2018-02-23T08:44:58.183Z,579.38
2018-02-23T08:45:58.204Z,585.00
2018-02-23T08:47:51.179Z,630.00
2018-02-23T08:48:51.230Z,888.75
2018-02-23T08:50:44.240Z,1248.75
2018-02-23T08:51:44.264Z,1316.25
2018-02-23T08:53:37.264Z,1344.38
2018-02-23T08:54:37.309Z,1366.88
2018-02-23T08:56:30.320Z,1321.88
2018-02-23T08:57:30.327Z,382.50
2018-02-23T08:59:23.338Z,1288.13
2018-02-23T09:00:23.360Z,1102.50
2018-02-23T09:02:16.358Z,1276.88
2018-02-23T09:03:16.400Z,1102.50
2018-02-23T09:05:09.394Z,1282.50
2018-02-23T09:06:09.430Z,1383.75
2018-02-23T09:08:02.418Z,1350.00
2018-02-23T09:09:02.461Z,1344.38
2018-02-23T09:10:55.464Z,478.13
2018-02-23T09:11:55.514Z,495.00
2018-02-23T09:13:48.495Z,1372.50
2018-02-23T09:14:48.539Z,731.25
2018-02-23T09:16:41.533Z,1175.63
2018-02-23T09:17:41.565Z,793.13
2018-02-23T09:19:34.540Z,433.13
2018-02-23T09:20:34.602Z,438.75
2018-02-23T09:22:27.596Z,410.63
2018-02-23T09:23:27.629Z,438.75
2018-02-23T09:25:20.637Z,393.75
2018-02-23T09:26:20.662Z,382.50
2018-02-23T09:28:13.636Z,337.50
2018-02-23T09:29:13.692Z,331.88
2018-02-23T09:31:06.705Z,326.25
2018-02-23T09:32:06.720Z,331.88
2018-02-23T09:34:00.215Z,337.50
2018-02-23T09:35:00.265Z,354.38
2018-02-23T09:36:53.266Z,331.88
2018-02-23T09:37:53.304Z,326.25
2018-02-23T09:39:46.260Z,343.13
2018-02-23T09:40:46.313Z,360.00
2018-02-23T09:42:39.310Z,348.75
2018-02-23T09:43:39.360Z,388.13
2018-02-23T09:45:32.342Z,461.25
2018-02-23T09:46:32.377Z,393.75
2018-02-23T09:48:25.353Z,433.13
2018-02-23T09:49:25.404Z,461.25
2018-02-23T09:51:18.428Z,551.25
2018-02-23T09:52:18.436Z,540.00
2018-02-23T09:54:11.415Z,472.50
2018-02-23T09:55:11.483Z,421.88
2018-02-23T09:57:04.470Z,393.75
2018-02-23T09:58:04.499Z,388.13
2018-02-23T09:59:57.497Z,438.75
2018-02-23T10:00:57.561Z,371.25
2018-02-23T10:02:50.524Z,315.00
2018-02-23T10:03:50.564Z,309.38
2018-02-23T10:05:43.562Z,315.00
2018-02-23T10:06:43.594Z,343.13
2018-02-23T10:08:36.565Z,315.00
2018-02-23T10:09:36.619Z,337.50
2018-02-23T10:11:29.616Z,337.50
2018-02-23T10:12:29.649Z,315.00
2018-02-23T10:14:22.641Z,315.00
2018-02-23T10:15:22.680Z,337.50
2018-02-23T10:17:15.685Z,315.00
2018-02-23T10:18:15.710Z,309.38
2018-02-23T10:20:08.681Z,348.75
2018-02-23T10:21:08.738Z,365.63
2018-02-23T10:23:01.742Z,360.00
2018-02-23T10:24:01.761Z,320.63
2018-02-23T10:25:54.759Z,292.50
2018-02-23T10:26:54.791Z,258.75
2018-02-23T10:28:47.778Z,275.63
2018-02-23T10:29:47.820Z,275.63
2018-02-23T10:31:40.817Z,264.38
2018-02-23T10:32:40.853Z,270.00
2018-02-23T10:34:33.829Z,264.38
2018-02-23T10:35:33.876Z,258.75
2018-02-23T10:37:26.877Z,253.13
2018-02-23T10:38:26.912Z,247.50
2018-02-23T10:40:19.884Z,253.13
2018-02-23T10:41:19.940Z,253.13
2018-02-23T10:43:12.930Z,253.13
2018-02-23T10:44:12.964Z,253.13
2018-02-23T10:46:05.966Z,258.75
2018-02-23T10:47:05.990Z,258.75
2018-02-23T10:48:58.974Z,253.13
2018-02-23T10:49:59.016Z,253.13
2018-02-23T10:51:52.011Z,247.50
2018-02-23T10:52:52.045Z,225.00
2018-02-23T10:54:45.031Z,247.50
2018-02-23T10:55:45.071Z,241.88
2018-02-23T10:57:38.074Z,247.50
2018-02-23T10:58:38.118Z,247.50
2018-02-23T11:00:31.080Z,247.50
2018-02-23T11:01:31.134Z,247.50
2018-02-23T11:03:24.132Z,247.50
2018-02-23T11:04:24.162Z,241.88
2018-02-23T11:06:17.155Z,241.88
2018-02-23T11:07:17.192Z,241.88
2018-02-23T11:09:10.163Z,241.88
2018-02-23T11:10:10.221Z,247.50
2018-02-23T11:12:03.211Z,241.88
2018-02-23T11:13:03.259Z,241.88
2018-02-23T11:14:56.216Z,241.88
2018-02-23T11:15:56.279Z,241.88
2018-02-23T11:17:49.290Z,241.88
2018-02-23T11:18:49.310Z,241.88
2018-02-23T11:20:42.290Z,241.88
2018-02-23T11:21:42.343Z,241.88
2018-02-23T11:23:35.337Z,236.25
2018-02-23T11:24:35.372Z,236.25
2018-02-23T11:26:28.373Z,236.25
2018-02-23T11:27:28.399Z,236.25
2018-02-23T11:29:21.380Z,236.25
2018-02-23T11:30:21.629Z,236.25
2018-02-23T11:32:14.435Z,230.63
2018-02-23T11:33:14.471Z,230.63
2018-02-23T11:35:07.447Z,230.63
2018-02-23T11:36:07.498Z,230.63
2018-02-23T11:38:00.488Z,230.63
2018-02-23T11:39:00.568Z,230.63
2018-02-23T11:40:53.520Z,230.63
2018-02-23T11:41:53.557Z,236.25
2018-02-23T11:43:47.104Z,236.25
2018-02-23T11:44:47.092Z,236.25
2018-02-23T11:46:40.097Z,236.25
2018-02-23T11:47:40.112Z,230.63
2018-02-23T11:49:33.086Z,236.25
2018-02-23T11:50:33.140Z,230.63
2018-02-23T11:52:26.132Z,230.63
2018-02-23T11:53:26.166Z,230.63
2018-02-23T11:55:19.153Z,230.63
2018-02-23T11:56:19.194Z,230.63
2018-02-23T11:58:12.190Z,230.63
2018-02-23T11:59:12.233Z,230.63
2018-02-23T12:01:05.201Z,230.63
2018-02-23T12:02:05.270Z,230.63
2018-02-23T12:03:58.761Z,230.63
2018-02-23T12:04:58.282Z,230.63
2018-02-23T12:06:51.289Z,225.00
2018-02-23T12:07:51.335Z,225.00
2018-02-23T12:09:44.783Z,225.00
2018-02-23T12:10:44.848Z,225.00
2018-02-23T12:12:37.835Z,225.00
2018-02-23T12:13:37.871Z,225.00
2018-02-23T12:15:30.842Z,225.00
2018-02-23T12:16:30.901Z,225.00
2018-02-23T12:18:23.893Z,219.38
2018-02-23T12:19:23.923Z,219.38
2018-02-23T12:21:16.941Z,219.38
2018-02-23T12:22:16.962Z,219.38
2018-02-23T12:24:09.970Z,219.38
2018-02-23T12:25:09.980Z,219.38
2018-02-23T12:27:02.973Z,219.38
2018-02-23T12:28:03.008Z,219.38
2018-02-23T12:29:55.983Z,219.38
2018-02-23T12:30:56.039Z,213.75
2018-02-23T12:32:49.030Z,213.75
2018-02-23T12:33:49.093Z,213.75
2018-02-23T12:35:42.043Z,213.75
2018-02-23T12:36:42.114Z,213.75
2018-02-23T12:38:35.110Z,213.75
2018-02-23T12:39:35.126Z,213.75
2018-02-23T12:41:28.112Z,208.13
2018-02-23T12:42:28.157Z,208.13
2018-02-23T12:44:21.166Z,208.13
2018-02-23T12:45:21.262Z,208.13
2018-02-23T12:47:14.182Z,208.13
2018-02-23T12:48:14.218Z,213.75
2018-02-23T12:50:07.287Z,208.13
2018-02-23T12:51:07.249Z,208.13
2018-02-23T12:53:00.246Z,208.13
2018-02-23T12:54:00.280Z,208.13
2018-02-23T12:55:53.285Z,208.13
2018-02-23T12:56:53.309Z,208.13
2018-02-23T12:58:46.308Z,208.13
2018-02-23T12:59:46.365Z,202.50
2018-02-23T13:01:39.318Z,202.50
2018-02-23T13:02:39.385Z,208.13
2018-02-23T13:04:32.377Z,208.13
2018-02-23T13:05:32.461Z,208.13
2018-02-23T13:07:25.411Z,208.13
2018-02-23T13:08:25.435Z,208.13
2018-02-23T13:10:18.425Z,208.13
2018-02-23T13:11:18.467Z,208.13
2018-02-23T13:13:11.462Z,202.50
2018-02-23T13:14:11.497Z,202.50
2018-02-23T13:16:04.512Z,202.50
2018-02-23T13:17:04.533Z,202.50
2018-02-23T13:18:57.529Z,196.88
2018-02-23T13:19:57.563Z,196.88
2018-02-23T13:21:50.543Z,196.88
2018-02-23T13:22:50.593Z,196.88
2018-02-23T13:24:43.688Z,196.88
2018-02-23T13:25:43.621Z,196.88
2018-02-23T13:27:36.770Z,196.88
2018-02-23T13:28:36.647Z,191.25
2018-02-23T13:30:29.620Z,191.25
2018-02-23T13:31:29.675Z,191.25
2018-02-23T13:33:22.671Z,191.25
2018-02-23T13:34:22.703Z,191.25
2018-02-23T13:36:15.699Z,191.25
2018-02-23T13:37:15.737Z,191.25
2018-02-23T13:39:08.734Z,185.63
2018-02-23T13:40:08.773Z,185.63
2018-02-23T13:42:01.750Z,185.63
2018-02-23T13:43:01.808Z,185.63
2018-02-23T13:44:54.801Z,185.63
2018-02-23T13:45:54.832Z,185.63
2018-02-23T13:47:47.956Z,185.63
2018-02-23T13:48:47.943Z,185.63
2018-02-23T13:50:41.068Z,185.63
2018-02-23T13:51:41.007Z,185.63
2018-02-23T13:53:33.894Z,185.63
2018-02-23T13:54:33.992Z,185.63
2018-02-23T13:56:27.005Z,185.63
2018-02-23T13:57:27.297Z,180.00
2018-02-23T13:59:20.027Z,180.00
2018-02-23T14:00:20.113Z,180.00
2018-02-23T14:02:12.976Z,180.00
2018-02-23T14:03:13.101Z,180.00
2018-02-23T14:05:17.687Z,174.38
2018-02-23T14:06:17.721Z,174.38
2018-02-23T14:08:10.809Z,174.38
2018-02-23T14:09:10.791Z,174.38
2018-02-23T14:11:03.863Z,180.00
2018-02-23T14:12:03.924Z,168.75
2018-02-23T14:13:56.822Z,168.75
2018-02-23T14:14:57.002Z,168.75
2018-02-23T14:16:49.806Z,168.75
2018-02-23T14:17:49.944Z,168.75
2018-02-23T14:19:42.890Z,168.75
2018-02-23T14:20:42.876Z,168.75
2018-02-23T14:22:35.854Z,180.00
2018-02-23T14:23:35.947Z,185.63
2018-02-23T14:25:29.005Z,174.38
2018-02-23T14:26:29.141Z,168.75
2018-02-23T14:28:22.334Z,168.75
2018-02-23T14:29:21.981Z,163.13
2018-02-23T14:31:14.976Z,163.13
2018-02-23T14:32:15.009Z,163.13
2018-02-23T14:34:08.010Z,157.50
2018-02-23T14:35:08.065Z,157.50
2018-02-23T14:37:01.037Z,157.50
2018-02-23T14:38:01.078Z,157.50
2018-02-23T14:39:54.071Z,157.50
2018-02-23T14:40:54.105Z,157.50
2018-02-23T14:42:47.086Z,157.50
2018-02-23T14:43:47.178Z,157.50
2018-02-23T14:45:40.213Z,157.50
2018-02-23T14:46:40.298Z,157.50
2018-02-23T14:48:33.155Z,151.88
2018-02-23T14:49:33.194Z,151.88
2018-02-23T14:51:26.172Z,151.88
2018-02-23T14:52:26.223Z,151.88
2018-02-23T14:54:19.247Z,146.25
2018-02-23T14:55:19.254Z,146.25
2018-02-23T14:57:12.270Z,146.25
2018-02-23T14:58:12.280Z,146.25
2018-02-23T15:00:05.318Z,140.63
2018-02-23T15:01:05.308Z,140.63
2018-02-23T15:02:58.430Z,140.63
2018-02-23T15:03:58.510Z,140.63
2018-02-23T15:05:51.478Z,140.63
2018-02-23T15:06:51.525Z,140.63
2018-02-23T15:08:44.558Z,135.00
2018-02-23T15:09:44.575Z,135.00
2018-02-23T15:11:37.570Z,135.00
2018-02-23T15:12:37.598Z,135.00
2018-02-23T15:14:31.119Z,129.38
2018-02-23T15:15:31.146Z,129.38
2018-02-23T15:17:24.171Z,129.38
2018-02-23T15:18:24.184Z,129.38
2018-02-23T15:20:17.149Z,129.38
2018-02-23T15:21:17.187Z,129.38
2018-02-23T15:23:10.201Z,129.38
2018-02-23T15:24:10.226Z,123.75
2018-02-23T15:26:03.241Z,123.75
2018-02-23T15:27:03.253Z,123.75
2018-02-23T15:28:56.338Z,123.75
2018-02-23T15:29:56.278Z,123.75
2018-02-23T15:31:49.261Z,123.75
2018-02-23T15:32:49.310Z,123.75
2018-02-23T15:34:42.311Z,118.13
2018-02-23T15:35:42.357Z,118.13
2018-02-23T15:37:35.349Z,118.13
2018-02-23T15:38:35.400Z,118.13
2018-02-23T15:40:28.372Z,112.50
2018-02-23T15:41:28.449Z,112.50
2018-02-23T15:43:21.491Z,112.50
2018-02-23T15:44:21.430Z,112.50
2018-02-23T15:46:14.456Z,106.88
2018-02-23T15:47:14.508Z,106.88
2018-02-23T15:49:07.460Z,106.88
2018-02-23T15:50:07.539Z,106.88
2018-02-23T15:52:00.475Z,101.25
2018-02-23T15:53:00.526Z,101.25
2018-02-23T15:54:53.514Z,101.25
2018-02-23T15:55:53.548Z,95.63
2018-02-23T15:57:46.525Z,95.63
2018-02-23T15:58:46.575Z,95.63
2018-02-23T16:00:39.571Z,90.00
2018-02-23T16:01:39.607Z,90.00
2018-02-23T16:03:32.573Z,90.00
2018-02-23T16:04:32.639Z,84.38
2018-02-23T16:06:25.620Z,84.38
2018-02-23T16:07:25.655Z,84.38
2018-02-23T16:09:18.652Z,78.75
2018-02-23T16:10:18.683Z,78.75
2018-02-23T16:12:11.654Z,78.75
2018-02-23T16:13:11.708Z,78.75
2018-02-23T16:15:04.703Z,73.13
2018-02-23T16:16:04.741Z,73.13
2018-02-23T16:17:57.711Z,67.50
2018-02-23T16:18:57.763Z,67.50
2018-02-23T16:20:50.758Z,67.50
2018-02-23T16:21:50.790Z,61.88
2018-02-23T16:23:43.763Z,61.88
2018-02-23T16:24:43.818Z,61.88
2018-02-23T16:26:36.809Z,56.25
2018-02-23T16:27:36.847Z,56.25
2018-02-23T16:29:29.837Z,50.63
2018-02-23T16:30:29.868Z,50.63
2018-02-23T16:32:22.863Z,45.00
2018-02-23T16:33:22.894Z,45.00
2018-02-23T16:35:15.890Z,45.00
2018-02-23T16:36:15.921Z,39.38
2018-02-23T16:38:09.009Z,39.38
2018-02-23T16:39:08.961Z,39.38
2018-02-23T16:41:01.942Z,33.75
2018-02-23T16:42:01.976Z,33.75
2018-02-23T16:43:54.961Z,33.75
2018-02-23T16:44:55.008Z,28.13
2018-02-23T16:46:48.007Z,28.13
2018-02-23T16:47:48.042Z,22.50
2018-02-23T16:49:41.034Z,22.50
2018-02-23T16:50:41.066Z,22.50
2018-02-23T16:52:34.049Z,16.88
2018-02-23T16:53:34.095Z,16.88
2018-02-23T16:55:28.586Z,11.25
2018-02-23T16:56:28.636Z,11.25
2018-02-23T16:58:21.647Z,11.25
2018-02-23T16:59:21.645Z,11.25
2018-02-23T17:01:14.745Z,5.63
2018-02-23T17:02:14.687Z,5.63
2018-02-23T17:04:07.641Z,5.63
2018-02-23T17:05:07.694Z,5.63
2018-02-23T17:07:00.685Z,5.63
2018-02-23T17:08:00.720Z,0.00
2018-02-23T17:09:53.711Z,0.00
2018-02-23T17:10:53.743Z,0.00
2018-02-23T17:12:46.736Z,0.00
2018-02-23T17:13:46.795Z,0.00
2018-02-23T17:15:39.782Z,0.00
2018-02-23T17:16:39.815Z,0.00
2018-02-23T17:18:32.786Z,0.00
2018-02-23T17:19:32.838Z,0.00
2018-02-23T17:21:25.832Z,0.00
2018-02-23T17:22:25.877Z,0.00
2018-02-23T17:24:18.836Z,0.00
2018-02-23T17:25:18.891Z,0.00
2018-02-23T17:27:11.879Z,0.00
2018-02-23T17:28:11.913Z,0.00
2018-02-23T17:30:04.907Z,0.00
2018-02-23T17:31:04.943Z,0.00
2018-02-23T17:32:57.913Z,0.00
2018-02-23T17:33:57.980Z,0.00
2018-02-23T17:35:50.954Z,0.00
2018-02-23T17:36:50.990Z,0.00
2018-02-23T17:38:43.970Z,0.00
2018-02-23T17:39:44.025Z,0.00
2018-02-23T17:41:37.014Z,0.00
2018-02-23T17:42:37.044Z,0.00
2018-02-23T17:44:30.016Z,0.00
2018-02-23T17:45:30.072Z,0.00
2018-02-23T17:47:23.060Z,0.00
2018-02-23T17:48:23.092Z,0.00
2018-02-23T17:50:16.083Z,0.00
2018-02-23T17:51:16.119Z,0.00
2018-02-23T17:53:09.086Z,0.00
2018-02-23T17:54:09.139Z,0.00
2018-02-23T17:56:02.639Z,0.00
2018-02-23T17:57:02.670Z,0.00
2018-02-23T17:58:55.639Z,0.00
2018-02-23T17:59:55.692Z,0.00
2018-02-23T18:01:48.682Z,0.00
2018-02-23T18:02:48.725Z,0.00
2018-02-23T18:04:41.702Z,0.00
2018-02-23T18:05:41.853Z,0.00
2018-02-23T18:07:34.915Z,0.00
2018-02-23T18:08:34.783Z,0.00
2018-02-23T18:10:27.784Z,0.00
2018-02-23T18:11:27.853Z,0.00
2018-02-23T18:13:20.803Z,0.00
2018-02-23T18:14:20.828Z,0.00
2018-02-23T18:16:13.863Z,0.00
2018-02-23T18:17:13.856Z,0.00
2018-02-23T18:19:06.836Z,0.00
2018-02-23T18:20:06.891Z,0.00
2018-02-23T18:21:59.882Z,0.00
2018-02-23T18:22:59.907Z,0.00
2018-02-23T18:24:52.889Z,0.00
2018-02-23T18:25:52.939Z,0.00
2018-02-23T18:27:45.977Z,0.00
2018-02-23T18:28:45.977Z,0.00
2018-02-23T18:30:38.944Z,0.00
2018-02-23T18:31:38.990Z,0.00
2018-02-23T18:33:31.961Z,0.00